sensor_id;sensor_type;location;lat;lon;timestamp;P1;durP1;ratioP1;P2;durP2;ratioP2
17193;SDS011;8713;48.388;10.928;2023-08-21T00:00:45;8.40;;;4.57;;
17193;SDS011;8713;48.388;10.928;2023-08-21T00:01:55;7.93;;;5.00;;
17193;SDS011;8713;48.388;10.928;2023-08-21T00:03:04;7.72;;;4.82;;
17193;SDS011;8713;48.388;10.928;2023-08-21T00:04:14;6.32;;;4.90;;
17193;SDS011;8713;48.388;10.928;2023-08-21T00:05:23;8.18;;;5.10;;
17193;SDS011;8713;48.388;10.928;2023-08-21T00:06:33;10.57;;;5.55;;
17193;SDS011;8713;48.388;10.928;2023-08-21T00:07:42;8.32;;;5.78;;
17193;SDS011;8713;48.388;10.928;2023-08-21T00:08:53;7.07;;;5.50;;
17193;SDS011;8713;48.388;10.928;2023-08-21T00:10:03;8.82;;;5.82;;
17193;SDS011;8713;48.388;10.928;2023-08-21T00:11:13;8.13;;;5.82;;
17193;SDS011;8713;48.388;10.928;2023-08-21T00:12:23;7.35;;;5.63;;
17193;SDS011;8713;48.388;10.928;2023-08-21T00:13:33;7.15;;;5.38;;
17193;SDS011;8713;48.388;10.928;2023-08-21T00:14:42;7.82;;;5.47;;
17193;SDS011;8713;48.388;10.928;2023-08-21T00:15:52;6.60;;;5.20;;
17193;SDS011;8713;48.388;10.928;2023-08-21T00:17:03;7.50;;;5.00;;
17193;SDS011;8713;48.388;10.928;2023-08-21T00:18:13;8.18;;;5.50;;
17193;SDS011;8713;48.388;10.928;2023-08-21T00:19:23;6.13;;;5.20;;
17193;SDS011;8713;48.388;10.928;2023-08-21T00:20:33;6.15;;;5.22;;
17193;SDS011;8713;48.388;10.928;2023-08-21T00:21:42;6.50;;;5.28;;
17193;SDS011;8713;48.388;10.928;2023-08-21T00:22:52;9.07;;;5.22;;
17193;SDS011;8713;48.388;10.928;2023-08-21T00:24:01;9.02;;;5.53;;
17193;SDS011;8713;48.388;10.928;2023-08-21T00:25:11;6.93;;;5.25;;
17193;SDS011;8713;48.388;10.928;2023-08-21T00:26:21;6.65;;;5.28;;
17193;SDS011;8713;48.388;10.928;2023-08-21T00:27:30;9.70;;;5.68;;
17193;SDS011;8713;48.388;10.928;2023-08-21T00:28:41;7.78;;;5.32;;
17193;SDS011;8713;48.388;10.928;2023-08-21T00:29:50;7.63;;;5.43;;
17193;SDS011;8713;48.388;10.928;2023-08-21T00:31:00;8.32;;;5.28;;
17193;SDS011;8713;48.388;10.928;2023-08-21T00:32:13;8.98;;;5.38;;
17193;SDS011;8713;48.388;10.928;2023-08-21T00:33:23;6.53;;;5.15;;
17193;SDS011;8713;48.388;10.928;2023-08-21T00:34:33;6.93;;;4.95;;
17193;SDS011;8713;48.388;10.928;2023-08-21T00:35:43;9.55;;;5.25;;
17193;SDS011;8713;48.388;10.928;2023-08-21T00:36:53;6.00;;;5.10;;
17193;SDS011;8713;48.388;10.928;2023-08-21T00:38:03;8.35;;;5.22;;
17193;SDS011;8713;48.388;10.928;2023-08-21T00:39:13;9.30;;;5.60;;
17193;SDS011;8713;48.388;10.928;2023-08-21T00:40:22;7.18;;;5.53;;
17193;SDS011;8713;48.388;10.928;2023-08-21T00:41:32;8.88;;;5.63;;
17193;SDS011;8713;48.388;10.928;2023-08-21T00:42:43;8.95;;;5.75;;
17193;SDS011;8713;48.388;10.928;2023-08-21T00:43:53;6.60;;;5.20;;
17193;SDS011;8713;48.388;10.928;2023-08-21T00:45:03;8.93;;;5.57;;
17193;SDS011;8713;48.388;10.928;2023-08-21T00:46:13;7.15;;;4.93;;
17193;SDS011;8713;48.388;10.928;2023-08-21T00:47:22;6.22;;;5.10;;
17193;SDS011;8713;48.388;10.928;2023-08-21T00:48:32;7.45;;;4.95;;
17193;SDS011;8713;48.388;10.928;2023-08-21T00:49:43;7.05;;;5.10;;
17193;SDS011;8713;48.388;10.928;2023-08-21T00:50:53;7.60;;;5.30;;
17193;SDS011;8713;48.388;10.928;2023-08-21T00:52:03;7.35;;;5.35;;
17193;SDS011;8713;48.388;10.928;2023-08-21T00:53:13;6.93;;;5.20;;
17193;SDS011;8713;48.388;10.928;2023-08-21T00:54:23;6.40;;;4.85;;
17193;SDS011;8713;48.388;10.928;2023-08-21T00:55:33;7.20;;;5.45;;
17193;SDS011;8713;48.388;10.928;2023-08-21T00:56:44;7.65;;;5.68;;
17193;SDS011;8713;48.388;10.928;2023-08-21T00:57:54;6.38;;;5.22;;
17193;SDS011;8713;48.388;10.928;2023-08-21T00:59:04;9.32;;;5.70;;
17193;SDS011;8713;48.388;10.928;2023-08-21T01:00:13;8.05;;;5.40;;
17193;SDS011;8713;48.388;10.928;2023-08-21T01:01:23;8.30;;;5.55;;
17193;SDS011;8713;48.388;10.928;2023-08-21T01:02:37;9.35;;;5.53;;
17193;SDS011;8713;48.388;10.928;2023-08-21T01:03:46;11.48;;;5.88;;
17193;SDS011;8713;48.388;10.928;2023-08-21T01:04:56;7.78;;;5.78;;
17193;SDS011;8713;48.388;10.928;2023-08-21T01:06:06;6.82;;;5.47;;
17193;SDS011;8713;48.388;10.928;2023-08-21T01:07:16;8.85;;;5.38;;
17193;SDS011;8713;48.388;10.928;2023-08-21T01:10:11;8.93;;;5.90;;
17193;SDS011;8713;48.388;10.928;2023-08-21T01:11:34;10.30;;;5.50;;
17193;SDS011;8713;48.388;10.928;2023-08-21T01:12:56;9.02;;;5.70;;
17193;SDS011;8713;48.388;10.928;2023-08-21T01:14:31;7.90;;;5.70;;
17193;SDS011;8713;48.388;10.928;2023-08-21T01:15:47;7.25;;;4.85;;
17193;SDS011;8713;48.388;10.928;2023-08-21T01:17:00;8.63;;;5.65;;
17193;SDS011;8713;48.388;10.928;2023-08-21T01:18:14;8.32;;;5.35;;
17193;SDS011;8713;48.388;10.928;2023-08-21T01:19:26;7.60;;;5.35;;
17193;SDS011;8713;48.388;10.928;2023-08-21T01:20:44;8.25;;;5.72;;
17193;SDS011;8713;48.388;10.928;2023-08-21T01:21:55;10.25;;;5.38;;
17193;SDS011;8713;48.388;10.928;2023-08-21T01:23:06;10.48;;;5.53;;
17193;SDS011;8713;48.388;10.928;2023-08-21T01:24:15;8.43;;;5.72;;
17193;SDS011;8713;48.388;10.928;2023-08-21T01:25:29;9.00;;;5.53;;
17193;SDS011;8713;48.388;10.928;2023-08-21T01:26:38;9.60;;;5.60;;
17193;SDS011;8713;48.388;10.928;2023-08-21T01:27:48;9.20;;;5.93;;
17193;SDS011;8713;48.388;10.928;2023-08-21T01:28:59;6.82;;;5.40;;
17193;SDS011;8713;48.388;10.928;2023-08-21T01:30:09;8.55;;;5.57;;
17193;SDS011;8713;48.388;10.928;2023-08-21T01:31:31;7.07;;;5.47;;
17193;SDS011;8713;48.388;10.928;2023-08-21T01:32:59;8.38;;;5.32;;
17193;SDS011;8713;48.388;10.928;2023-08-21T01:34:14;6.50;;;5.18;;
17193;SDS011;8713;48.388;10.928;2023-08-21T01:35:26;6.43;;;5.20;;
17193;SDS011;8713;48.388;10.928;2023-08-21T01:36:37;7.28;;;5.28;;
17193;SDS011;8713;48.388;10.928;2023-08-21T01:37:46;7.88;;;5.43;;
17193;SDS011;8713;48.388;10.928;2023-08-21T01:38:57;7.75;;;4.97;;
17193;SDS011;8713;48.388;10.928;2023-08-21T01:40:06;8.95;;;5.22;;
17193;SDS011;8713;48.388;10.928;2023-08-21T01:41:16;6.80;;;5.00;;
17193;SDS011;8713;48.388;10.928;2023-08-21T01:42:26;7.47;;;5.38;;
17193;SDS011;8713;48.388;10.928;2023-08-21T01:43:35;7.70;;;5.57;;
17193;SDS011;8713;48.388;10.928;2023-08-21T01:44:45;9.02;;;5.05;;
17193;SDS011;8713;48.388;10.928;2023-08-21T01:45:55;7.80;;;5.22;;
17193;SDS011;8713;48.388;10.928;2023-08-21T01:47:05;6.32;;;5.28;;
17193;SDS011;8713;48.388;10.928;2023-08-21T01:48:15;9.52;;;5.20;;
17193;SDS011;8713;48.388;10.928;2023-08-21T01:49:25;7.40;;;5.22;;
17193;SDS011;8713;48.388;10.928;2023-08-21T01:50:34;6.88;;;5.32;;
17193;SDS011;8713;48.388;10.928;2023-08-21T01:51:44;6.80;;;5.20;;
17193;SDS011;8713;48.388;10.928;2023-08-21T01:52:53;7.22;;;4.97;;
17193;SDS011;8713;48.388;10.928;2023-08-21T01:54:03;7.80;;;5.38;;
17193;SDS011;8713;48.388;10.928;2023-08-21T01:55:12;9.57;;;5.13;;
17193;SDS011;8713;48.388;10.928;2023-08-21T01:56:23;6.75;;;4.95;;
17193;SDS011;8713;48.388;10.928;2023-08-21T01:57:33;5.78;;;4.68;;
17193;SDS011;8713;48.388;10.928;2023-08-21T01:58:43;6.47;;;4.63;;
17193;SDS011;8713;48.388;10.928;2023-08-21T01:59:53;7.35;;;5.22;;
17193;SDS011;8713;48.388;10.928;2023-08-21T02:01:03;8.15;;;5.10;;
17193;SDS011;8713;48.388;10.928;2023-08-21T02:02:14;6.13;;;4.88;;
17193;SDS011;8713;48.388;10.928;2023-08-21T02:03:25;8.60;;;5.07;;
17193;SDS011;8713;48.388;10.928;2023-08-21T02:04:34;7.45;;;5.40;;
17193;SDS011;8713;48.388;10.928;2023-08-21T02:05:44;8.73;;;5.18;;
17193;SDS011;8713;48.388;10.928;2023-08-21T02:06:53;8.60;;;5.30;;
17193;SDS011;8713;48.388;10.928;2023-08-21T02:08:05;8.40;;;5.18;;
17193;SDS011;8713;48.388;10.928;2023-08-21T02:09:18;7.80;;;5.03;;
17193;SDS011;8713;48.388;10.928;2023-08-21T02:10:28;7.30;;;5.22;;
17193;SDS011;8713;48.388;10.928;2023-08-21T02:11:37;7.68;;;5.40;;
17193;SDS011;8713;48.388;10.928;2023-08-21T02:12:47;7.55;;;5.57;;
17193;SDS011;8713;48.388;10.928;2023-08-21T02:13:59;7.70;;;5.22;;
17193;SDS011;8713;48.388;10.928;2023-08-21T02:15:09;8.90;;;5.47;;
17193;SDS011;8713;48.388;10.928;2023-08-21T02:16:19;8.70;;;5.22;;
17193;SDS011;8713;48.388;10.928;2023-08-21T02:17:31;8.88;;;5.55;;
17193;SDS011;8713;48.388;10.928;2023-08-21T02:18:42;7.72;;;5.50;;
17193;SDS011;8713;48.388;10.928;2023-08-21T02:19:52;9.13;;;5.10;;
17193;SDS011;8713;48.388;10.928;2023-08-21T02:21:01;8.10;;;5.45;;
17193;SDS011;8713;48.388;10.928;2023-08-21T02:22:11;7.30;;;5.68;;
17193;SDS011;8713;48.388;10.928;2023-08-21T02:23:21;9.02;;;5.32;;
17193;SDS011;8713;48.388;10.928;2023-08-21T02:24:31;6.65;;;5.30;;
17193;SDS011;8713;48.388;10.928;2023-08-21T02:25:40;8.40;;;5.50;;
17193;SDS011;8713;48.388;10.928;2023-08-21T02:26:50;8.35;;;5.47;;
17193;SDS011;8713;48.388;10.928;2023-08-21T02:28:00;7.65;;;5.28;;
17193;SDS011;8713;48.388;10.928;2023-08-21T02:29:10;6.55;;;5.03;;
17193;SDS011;8713;48.388;10.928;2023-08-21T02:30:20;6.80;;;5.30;;
17193;SDS011;8713;48.388;10.928;2023-08-21T02:31:34;7.57;;;5.47;;
17193;SDS011;8713;48.388;10.928;2023-08-21T02:32:44;8.20;;;5.78;;
17193;SDS011;8713;48.388;10.928;2023-08-21T02:33:53;10.02;;;5.50;;
17193;SDS011;8713;48.388;10.928;2023-08-21T02:35:03;7.97;;;5.32;;
17193;SDS011;8713;48.388;10.928;2023-08-21T02:36:14;6.93;;;5.63;;
17193;SDS011;8713;48.388;10.928;2023-08-21T02:37:23;9.27;;;5.47;;
17193;SDS011;8713;48.388;10.928;2023-08-21T02:38:33;7.55;;;5.47;;
17193;SDS011;8713;48.388;10.928;2023-08-21T02:39:43;8.68;;;6.38;;
17193;SDS011;8713;48.388;10.928;2023-08-21T02:40:52;8.70;;;6.07;;
17193;SDS011;8713;48.388;10.928;2023-08-21T02:42:02;8.90;;;6.03;;
17193;SDS011;8713;48.388;10.928;2023-08-21T02:43:11;10.45;;;6.18;;
17193;SDS011;8713;48.388;10.928;2023-08-21T02:44:21;6.80;;;5.30;;
17193;SDS011;8713;48.388;10.928;2023-08-21T02:45:30;7.65;;;5.25;;
17193;SDS011;8713;48.388;10.928;2023-08-21T02:46:40;8.40;;;6.00;;
17193;SDS011;8713;48.388;10.928;2023-08-21T02:47:50;8.77;;;6.00;;
17193;SDS011;8713;48.388;10.928;2023-08-21T02:49:00;9.10;;;5.80;;
17193;SDS011;8713;48.388;10.928;2023-08-21T02:50:10;8.30;;;5.53;;
17193;SDS011;8713;48.388;10.928;2023-08-21T02:51:21;12.05;;;5.57;;
17193;SDS011;8713;48.388;10.928;2023-08-21T02:52:30;8.50;;;5.50;;
17193;SDS011;8713;48.388;10.928;2023-08-21T02:53:41;8.35;;;5.70;;
17193;SDS011;8713;48.388;10.928;2023-08-21T02:54:50;8.02;;;5.85;;
17193;SDS011;8713;48.388;10.928;2023-08-21T02:56:00;6.80;;;5.13;;
17193;SDS011;8713;48.388;10.928;2023-08-21T02:57:10;7.35;;;5.60;;
17193;SDS011;8713;48.388;10.928;2023-08-21T02:58:20;9.00;;;5.32;;
17193;SDS011;8713;48.388;10.928;2023-08-21T02:59:29;9.43;;;5.75;;
17193;SDS011;8713;48.388;10.928;2023-08-21T03:00:39;7.55;;;5.63;;
17193;SDS011;8713;48.388;10.928;2023-08-21T03:01:49;9.73;;;5.80;;
17193;SDS011;8713;48.388;10.928;2023-08-21T03:03:00;8.30;;;5.70;;
17193;SDS011;8713;48.388;10.928;2023-08-21T03:04:09;8.85;;;5.97;;
17193;SDS011;8713;48.388;10.928;2023-08-21T03:05:19;8.32;;;5.80;;
17193;SDS011;8713;48.388;10.928;2023-08-21T03:06:29;7.70;;;5.78;;
17193;SDS011;8713;48.388;10.928;2023-08-21T03:07:39;7.93;;;5.97;;
17193;SDS011;8713;48.388;10.928;2023-08-21T03:08:48;8.32;;;5.90;;
17193;SDS011;8713;48.388;10.928;2023-08-21T03:09:58;10.15;;;6.55;;
17193;SDS011;8713;48.388;10.928;2023-08-21T03:11:08;8.02;;;6.00;;
17193;SDS011;8713;48.388;10.928;2023-08-21T03:12:18;8.30;;;5.40;;
17193;SDS011;8713;48.388;10.928;2023-08-21T03:13:27;9.23;;;6.03;;
17193;SDS011;8713;48.388;10.928;2023-08-21T03:14:37;9.70;;;5.88;;
17193;SDS011;8713;48.388;10.928;2023-08-21T03:15:47;8.05;;;5.95;;
17193;SDS011;8713;48.388;10.928;2023-08-21T03:16:57;7.78;;;5.60;;
17193;SDS011;8713;48.388;10.928;2023-08-21T03:18:07;9.32;;;5.85;;
17193;SDS011;8713;48.388;10.928;2023-08-21T03:19:17;9.55;;;6.30;;
17193;SDS011;8713;48.388;10.928;2023-08-21T03:20:26;9.35;;;6.32;;
17193;SDS011;8713;48.388;10.928;2023-08-21T03:21:36;11.15;;;6.57;;
17193;SDS011;8713;48.388;10.928;2023-08-21T03:22:46;11.23;;;6.45;;
17193;SDS011;8713;48.388;10.928;2023-08-21T03:23:56;9.77;;;6.63;;
17193;SDS011;8713;48.388;10.928;2023-08-21T03:25:09;9.70;;;6.38;;
17193;SDS011;8713;48.388;10.928;2023-08-21T03:26:20;10.02;;;6.30;;
17193;SDS011;8713;48.388;10.928;2023-08-21T03:27:30;8.32;;;6.32;;
17193;SDS011;8713;48.388;10.928;2023-08-21T03:28:41;6.93;;;5.83;;
17193;SDS011;8713;48.388;10.928;2023-08-21T03:29:51;9.45;;;6.30;;
17193;SDS011;8713;48.388;10.928;2023-08-21T03:31:00;8.00;;;5.90;;
17193;SDS011;8713;48.388;10.928;2023-08-21T03:32:09;8.48;;;6.32;;
17193;SDS011;8713;48.388;10.928;2023-08-21T03:33:19;8.85;;;6.30;;
17193;SDS011;8713;48.388;10.928;2023-08-21T03:34:29;8.07;;;6.10;;
17193;SDS011;8713;48.388;10.928;2023-08-21T03:35:43;7.90;;;6.22;;
17193;SDS011;8713;48.388;10.928;2023-08-21T03:36:53;8.10;;;5.85;;
17193;SDS011;8713;48.388;10.928;2023-08-21T03:38:03;7.97;;;5.80;;
17193;SDS011;8713;48.388;10.928;2023-08-21T03:39:18;7.70;;;6.07;;
17193;SDS011;8713;48.388;10.928;2023-08-21T03:40:30;7.82;;;6.18;;
17193;SDS011;8713;48.388;10.928;2023-08-21T03:41:40;8.65;;;6.30;;
17193;SDS011;8713;48.388;10.928;2023-08-21T03:42:50;8.90;;;6.00;;
17193;SDS011;8713;48.388;10.928;2023-08-21T03:43:59;8.73;;;6.18;;
17193;SDS011;8713;48.388;10.928;2023-08-21T03:45:09;8.88;;;6.88;;
17193;SDS011;8713;48.388;10.928;2023-08-21T03:46:18;8.95;;;6.50;;
17193;SDS011;8713;48.388;10.928;2023-08-21T03:47:28;9.20;;;6.38;;
17193;SDS011;8713;48.388;10.928;2023-08-21T03:48:45;9.75;;;6.55;;
17193;SDS011;8713;48.388;10.928;2023-08-21T03:49:55;10.73;;;6.65;;
17193;SDS011;8713;48.388;10.928;2023-08-21T03:51:06;9.70;;;6.50;;
17193;SDS011;8713;48.388;10.928;2023-08-21T03:52:16;11.25;;;6.90;;
17193;SDS011;8713;48.388;10.928;2023-08-21T03:53:25;9.18;;;6.32;;
17193;SDS011;8713;48.388;10.928;2023-08-21T03:54:35;9.07;;;6.78;;
17193;SDS011;8713;48.388;10.928;2023-08-21T03:55:45;10.30;;;6.60;;
17193;SDS011;8713;48.388;10.928;2023-08-21T03:56:55;9.02;;;6.68;;
17193;SDS011;8713;48.388;10.928;2023-08-21T03:58:05;10.32;;;6.20;;
17193;SDS011;8713;48.388;10.928;2023-08-21T03:59:15;11.43;;;6.80;;
17193;SDS011;8713;48.388;10.928;2023-08-21T04:00:25;9.27;;;6.53;;
17193;SDS011;8713;48.388;10.928;2023-08-21T04:01:34;10.20;;;6.55;;
17193;SDS011;8713;48.388;10.928;2023-08-21T04:02:44;11.02;;;6.90;;
17193;SDS011;8713;48.388;10.928;2023-08-21T04:03:54;9.25;;;6.50;;
17193;SDS011;8713;48.388;10.928;2023-08-21T04:05:04;8.52;;;6.25;;
17193;SDS011;8713;48.388;10.928;2023-08-21T04:06:14;9.48;;;6.40;;
17193;SDS011;8713;48.388;10.928;2023-08-21T04:07:23;7.70;;;6.20;;
17193;SDS011;8713;48.388;10.928;2023-08-21T04:08:33;10.02;;;6.25;;
17193;SDS011;8713;48.388;10.928;2023-08-21T04:09:43;10.10;;;6.18;;
17193;SDS011;8713;48.388;10.928;2023-08-21T04:10:53;8.67;;;6.00;;
17193;SDS011;8713;48.388;10.928;2023-08-21T04:12:04;9.88;;;6.47;;
17193;SDS011;8713;48.388;10.928;2023-08-21T04:13:13;9.60;;;6.35;;
17193;SDS011;8713;48.388;10.928;2023-08-21T04:14:23;7.50;;;5.95;;
17193;SDS011;8713;48.388;10.928;2023-08-21T04:15:33;8.50;;;6.35;;
17193;SDS011;8713;48.388;10.928;2023-08-21T04:16:47;9.93;;;6.70;;
17193;SDS011;8713;48.388;10.928;2023-08-21T04:17:56;9.85;;;6.50;;
17193;SDS011;8713;48.388;10.928;2023-08-21T04:19:05;8.30;;;5.90;;
17193;SDS011;8713;48.388;10.928;2023-08-21T04:20:15;8.80;;;5.53;;
17193;SDS011;8713;48.388;10.928;2023-08-21T04:21:24;8.15;;;5.90;;
17193;SDS011;8713;48.388;10.928;2023-08-21T04:22:34;9.57;;;6.28;;
17193;SDS011;8713;48.388;10.928;2023-08-21T04:23:44;8.27;;;6.18;;
17193;SDS011;8713;48.388;10.928;2023-08-21T04:24:54;8.05;;;6.38;;
17193;SDS011;8713;48.388;10.928;2023-08-21T04:26:04;10.18;;;6.60;;
17193;SDS011;8713;48.388;10.928;2023-08-21T04:27:13;8.18;;;6.15;;
17193;SDS011;8713;48.388;10.928;2023-08-21T04:28:23;11.15;;;7.35;;
17193;SDS011;8713;48.388;10.928;2023-08-21T04:29:34;11.25;;;6.32;;
17193;SDS011;8713;48.388;10.928;2023-08-21T04:30:44;9.02;;;6.32;;
17193;SDS011;8713;48.388;10.928;2023-08-21T04:31:54;9.73;;;6.53;;
17193;SDS011;8713;48.388;10.928;2023-08-21T04:33:04;9.93;;;6.40;;
17193;SDS011;8713;48.388;10.928;2023-08-21T04:34:14;8.88;;;6.30;;
17193;SDS011;8713;48.388;10.928;2023-08-21T04:35:24;8.95;;;6.15;;
17193;SDS011;8713;48.388;10.928;2023-08-21T04:36:33;8.45;;;6.15;;
17193;SDS011;8713;48.388;10.928;2023-08-21T04:37:46;9.50;;;5.97;;
17193;SDS011;8713;48.388;10.928;2023-08-21T04:38:58;9.25;;;6.47;;
17193;SDS011;8713;48.388;10.928;2023-08-21T04:40:08;9.70;;;6.35;;
17193;SDS011;8713;48.388;10.928;2023-08-21T04:41:19;9.40;;;6.15;;
17193;SDS011;8713;48.388;10.928;2023-08-21T04:42:30;10.77;;;6.88;;
17193;SDS011;8713;48.388;10.928;2023-08-21T04:43:40;9.85;;;6.55;;
17193;SDS011;8713;48.388;10.928;2023-08-21T04:44:52;12.45;;;6.43;;
17193;SDS011;8713;48.388;10.928;2023-08-21T04:46:02;10.30;;;6.70;;
17193;SDS011;8713;48.388;10.928;2023-08-21T04:47:22;10.15;;;6.47;;
17193;SDS011;8713;48.388;10.928;2023-08-21T04:48:36;8.20;;;6.10;;
17193;SDS011;8713;48.388;10.928;2023-08-21T04:49:46;8.32;;;6.15;;
17193;SDS011;8713;48.388;10.928;2023-08-21T04:50:57;8.07;;;6.35;;
17193;SDS011;8713;48.388;10.928;2023-08-21T04:52:07;12.15;;;6.13;;
17193;SDS011;8713;48.388;10.928;2023-08-21T04:53:16;9.27;;;6.90;;
17193;SDS011;8713;48.388;10.928;2023-08-21T04:54:26;10.40;;;6.43;;
17193;SDS011;8713;48.388;10.928;2023-08-21T04:55:35;10.43;;;6.93;;
17193;SDS011;8713;48.388;10.928;2023-08-21T04:56:45;9.80;;;6.32;;
17193;SDS011;8713;48.388;10.928;2023-08-21T04:57:56;9.52;;;6.55;;
17193;SDS011;8713;48.388;10.928;2023-08-21T04:59:07;9.98;;;6.78;;
17193;SDS011;8713;48.388;10.928;2023-08-21T05:00:17;9.77;;;6.22;;
17193;SDS011;8713;48.388;10.928;2023-08-21T05:01:28;9.77;;;6.50;;
17193;SDS011;8713;48.388;10.928;2023-08-21T05:02:39;11.00;;;6.82;;
17193;SDS011;8713;48.388;10.928;2023-08-21T05:03:49;8.32;;;6.78;;
17193;SDS011;8713;48.388;10.928;2023-08-21T05:05:01;9.88;;;6.05;;
17193;SDS011;8713;48.388;10.928;2023-08-21T05:06:11;11.20;;;6.75;;
17193;SDS011;8713;48.388;10.928;2023-08-21T05:07:21;9.43;;;6.20;;
17193;SDS011;8713;48.388;10.928;2023-08-21T05:08:32;10.30;;;6.63;;
17193;SDS011;8713;48.388;10.928;2023-08-21T05:09:43;8.75;;;6.45;;
17193;SDS011;8713;48.388;10.928;2023-08-21T05:10:57;9.35;;;6.15;;
17193;SDS011;8713;48.388;10.928;2023-08-21T05:12:09;9.48;;;6.20;;
17193;SDS011;8713;48.388;10.928;2023-08-21T05:13:19;11.30;;;6.57;;
17193;SDS011;8713;48.388;10.928;2023-08-21T05:14:29;9.90;;;6.20;;
17193;SDS011;8713;48.388;10.928;2023-08-21T05:15:39;8.45;;;6.22;;
17193;SDS011;8713;48.388;10.928;2023-08-21T05:16:49;9.48;;;6.63;;
17193;SDS011;8713;48.388;10.928;2023-08-21T05:17:59;11.88;;;6.63;;
17193;SDS011;8713;48.388;10.928;2023-08-21T05:19:08;9.48;;;6.43;;
17193;SDS011;8713;48.388;10.928;2023-08-21T05:20:18;10.23;;;6.40;;
17193;SDS011;8713;48.388;10.928;2023-08-21T05:21:27;9.85;;;6.65;;
17193;SDS011;8713;48.388;10.928;2023-08-21T05:22:37;9.85;;;6.38;;
17193;SDS011;8713;48.388;10.928;2023-08-21T05:23:46;8.70;;;6.15;;
17193;SDS011;8713;48.388;10.928;2023-08-21T05:24:56;8.93;;;6.63;;
17193;SDS011;8713;48.388;10.928;2023-08-21T05:26:06;8.98;;;6.57;;
17193;SDS011;8713;48.388;10.928;2023-08-21T05:27:16;8.73;;;5.97;;
17193;SDS011;8713;48.388;10.928;2023-08-21T05:28:25;8.55;;;5.80;;
17193;SDS011;8713;48.388;10.928;2023-08-21T05:29:35;10.98;;;6.07;;
17193;SDS011;8713;48.388;10.928;2023-08-21T05:30:48;9.15;;;6.13;;
17193;SDS011;8713;48.388;10.928;2023-08-21T05:31:59;8.38;;;5.57;;
17193;SDS011;8713;48.388;10.928;2023-08-21T05:33:08;8.32;;;5.82;;
17193;SDS011;8713;48.388;10.928;2023-08-21T05:34:19;11.80;;;5.60;;
17193;SDS011;8713;48.388;10.928;2023-08-21T05:35:29;8.70;;;6.00;;
17193;SDS011;8713;48.388;10.928;2023-08-21T05:36:43;9.35;;;5.80;;
17193;SDS011;8713;48.388;10.928;2023-08-21T05:37:53;8.73;;;6.07;;
17193;SDS011;8713;48.388;10.928;2023-08-21T05:39:04;10.05;;;6.20;;
17193;SDS011;8713;48.388;10.928;2023-08-21T05:40:15;8.95;;;5.80;;
17193;SDS011;8713;48.388;10.928;2023-08-21T05:41:25;10.30;;;6.05;;
17193;SDS011;8713;48.388;10.928;2023-08-21T05:42:36;9.75;;;6.10;;
17193;SDS011;8713;48.388;10.928;2023-08-21T05:43:46;10.07;;;6.15;;
17193;SDS011;8713;48.388;10.928;2023-08-21T05:44:57;12.32;;;6.65;;
17193;SDS011;8713;48.388;10.928;2023-08-21T05:46:09;10.00;;;6.30;;
17193;SDS011;8713;48.388;10.928;2023-08-21T05:47:20;9.38;;;6.00;;
17193;SDS011;8713;48.388;10.928;2023-08-21T05:48:29;9.40;;;6.07;;
17193;SDS011;8713;48.388;10.928;2023-08-21T05:49:39;8.40;;;5.97;;
17193;SDS011;8713;48.388;10.928;2023-08-21T05:50:52;8.82;;;5.82;;
17193;SDS011;8713;48.388;10.928;2023-08-21T05:52:02;7.60;;;5.53;;
17193;SDS011;8713;48.388;10.928;2023-08-21T05:53:12;10.75;;;6.18;;
17193;SDS011;8713;48.388;10.928;2023-08-21T05:54:22;11.77;;;5.85;;
17193;SDS011;8713;48.388;10.928;2023-08-21T05:55:32;9.93;;;5.65;;
17193;SDS011;8713;48.388;10.928;2023-08-21T05:56:42;9.77;;;5.57;;
17193;SDS011;8713;48.388;10.928;2023-08-21T05:57:52;10.60;;;5.88;;
17193;SDS011;8713;48.388;10.928;2023-08-21T05:59:03;7.28;;;5.60;;
17193;SDS011;8713;48.388;10.928;2023-08-21T06:00:12;7.15;;;5.20;;
17193;SDS011;8713;48.388;10.928;2023-08-21T06:01:26;8.65;;;5.28;;
17193;SDS011;8713;48.388;10.928;2023-08-21T06:02:35;9.02;;;5.10;;
17193;SDS011;8713;48.388;10.928;2023-08-21T06:03:46;8.95;;;5.95;;
17193;SDS011;8713;48.388;10.928;2023-08-21T06:05:15;9.45;;;5.75;;
17193;SDS011;8713;48.388;10.928;2023-08-21T06:06:27;10.05;;;6.05;;
17193;SDS011;8713;48.388;10.928;2023-08-21T06:07:36;8.43;;;5.47;;
17193;SDS011;8713;48.388;10.928;2023-08-21T06:09:04;9.02;;;5.20;;
17193;SDS011;8713;48.388;10.928;2023-08-21T06:10:14;9.52;;;5.35;;
17193;SDS011;8713;48.388;10.928;2023-08-21T06:11:24;7.70;;;5.63;;
17193;SDS011;8713;48.388;10.928;2023-08-21T06:12:33;9.45;;;5.15;;
17193;SDS011;8713;48.388;10.928;2023-08-21T06:13:42;9.07;;;5.20;;
17193;SDS011;8713;48.388;10.928;2023-08-21T06:14:53;9.93;;;5.50;;
17193;SDS011;8713;48.388;10.928;2023-08-21T06:16:03;9.80;;;5.35;;
17193;SDS011;8713;48.388;10.928;2023-08-21T06:17:14;9.93;;;5.38;;
17193;SDS011;8713;48.388;10.928;2023-08-21T06:18:23;8.30;;;5.45;;
17193;SDS011;8713;48.388;10.928;2023-08-21T06:19:32;8.13;;;5.30;;
17193;SDS011;8713;48.388;10.928;2023-08-21T06:20:42;9.27;;;5.88;;
17193;SDS011;8713;48.388;10.928;2023-08-21T06:21:54;8.27;;;5.65;;
17193;SDS011;8713;48.388;10.928;2023-08-21T06:23:04;9.38;;;5.03;;
17193;SDS011;8713;48.388;10.928;2023-08-21T06:24:14;10.63;;;5.65;;
17193;SDS011;8713;48.388;10.928;2023-08-21T06:25:23;9.15;;;6.38;;
17193;SDS011;8713;48.388;10.928;2023-08-21T06:26:32;9.00;;;5.57;;
17193;SDS011;8713;48.388;10.928;2023-08-21T06:27:42;8.50;;;5.63;;
17193;SDS011;8713;48.388;10.928;2023-08-21T06:28:51;10.40;;;5.78;;
17193;SDS011;8713;48.388;10.928;2023-08-21T06:30:01;8.60;;;5.47;;
17193;SDS011;8713;48.388;10.928;2023-08-21T06:31:12;11.05;;;6.22;;
17193;SDS011;8713;48.388;10.928;2023-08-21T06:32:21;10.35;;;6.30;;
17193;SDS011;8713;48.388;10.928;2023-08-21T06:33:30;12.00;;;6.03;;
17193;SDS011;8713;48.388;10.928;2023-08-21T06:34:40;9.82;;;5.57;;
17193;SDS011;8713;48.388;10.928;2023-08-21T06:35:51;9.10;;;5.68;;
17193;SDS011;8713;48.388;10.928;2023-08-21T06:37:01;10.43;;;5.97;;
17193;SDS011;8713;48.388;10.928;2023-08-21T06:38:10;10.95;;;5.80;;
17193;SDS011;8713;48.388;10.928;2023-08-21T06:39:19;10.73;;;5.57;;
17193;SDS011;8713;48.388;10.928;2023-08-21T06:40:29;9.55;;;5.85;;
17193;SDS011;8713;48.388;10.928;2023-08-21T06:41:38;7.78;;;5.90;;
17193;SDS011;8713;48.388;10.928;2023-08-21T06:42:48;9.07;;;6.28;;
17193;SDS011;8713;48.388;10.928;2023-08-21T06:44:02;10.10;;;6.43;;
17193;SDS011;8713;48.388;10.928;2023-08-21T06:45:12;10.43;;;6.03;;
17193;SDS011;8713;48.388;10.928;2023-08-21T06:46:22;11.32;;;6.03;;
17193;SDS011;8713;48.388;10.928;2023-08-21T06:47:32;7.70;;;5.60;;
17193;SDS011;8713;48.388;10.928;2023-08-21T06:48:42;9.65;;;5.60;;
17193;SDS011;8713;48.388;10.928;2023-08-21T06:49:52;7.90;;;5.53;;
17193;SDS011;8713;48.388;10.928;2023-08-21T06:51:01;9.18;;;5.50;;
17193;SDS011;8713;48.388;10.928;2023-08-21T06:52:11;9.32;;;5.78;;
17193;SDS011;8713;48.388;10.928;2023-08-21T06:53:20;8.90;;;6.05;;
17193;SDS011;8713;48.388;10.928;2023-08-21T06:54:30;11.45;;;5.55;;
17193;SDS011;8713;48.388;10.928;2023-08-21T06:55:39;11.57;;;5.78;;
17193;SDS011;8713;48.388;10.928;2023-08-21T06:56:48;11.82;;;6.80;;
17193;SDS011;8713;48.388;10.928;2023-08-21T06:57:58;7.90;;;5.78;;
17193;SDS011;8713;48.388;10.928;2023-08-21T06:59:07;6.82;;;4.97;;
17193;SDS011;8713;48.388;10.928;2023-08-21T07:00:17;9.70;;;5.35;;
17193;SDS011;8713;48.388;10.928;2023-08-21T07:01:26;9.52;;;5.90;;
17193;SDS011;8713;48.388;10.928;2023-08-21T07:02:37;8.50;;;5.30;;
17193;SDS011;8713;48.388;10.928;2023-08-21T07:03:46;10.07;;;5.70;;
17193;SDS011;8713;48.388;10.928;2023-08-21T07:04:56;10.32;;;5.43;;
17193;SDS011;8713;48.388;10.928;2023-08-21T07:06:06;7.43;;;5.18;;